Coburg, Oregon
Current Conditions -  °F | °C
As of 5:54 PM on Tuesday 21 Oct 2014 (Local Time) from KEUG Reporting Station
Overcast Overcast  
Wind Chill: 61°   Ceiling: 6000
Heat Index: 61°   Visibility: 10mi
Dew Point: 47°   Wind: 10mph
Humidity: 60%   Direction: 160°SSE
Pressure: 29.95"   Gusts: NA
Location:  44.1549°N, 123.062°W
Report Text: KEUG 220054Z 16009KT 10SM FEW035 OVC060 16/08 A2995 RMK AO2 SLP142 T01610083
Loading
Personal Weather Stations






























Interactive Weather Map
Tropical Storm Tracking
New forecast layout! Learn more

10-Day Weather Forecast

Advertisements
Track Severe Weather on mobile